UTA384 ULLI-UUWW
Flight info
| Callsign | UTA384 |
|---|---|
| Flight time | 1h 10m |
| Altitude | 39000 |
| Route | SUGIN1B SUGIN T873 NIRGI T73 DESUD T834 BEKIP BEKIP3B |
| Aircraft | B752/M-SDFHIRWY/LB1 |
Departure
| Time | 2026-05-05 14:57 |
|---|---|
| Airport | Pulkovo Airport (ULLI) |
Arrival
| Time | 2026-05-05 16:07 |
|---|---|
| Airport | Vnukovo International Airport (UUWW) |
| Time | Latitude | Longitude | Altitude | Speed | Heading |
|---|---|---|---|---|---|
| 2026-05-05 14:18 | 59.79643 | 30.26608 | 89 ft | 0 kts | 106° |
| 2026-05-05 14:48 | 59.79646 | 30.26590 | 89 ft | 2 kts | 106° |
| 2026-05-05 14:48 | 59.79650 | 30.26562 | 89 ft | 2 kts | 106° |
| 2026-05-05 14:48 | 59.79654 | 30.26533 | 89 ft | 2 kts | 106° |
| 2026-05-05 14:49 | 59.79659 | 30.26505 | 89 ft | 2 kts | 106° |
| 2026-05-05 14:49 | 59.79663 | 30.26476 | 89 ft | 2 kts | 106° |
| 2026-05-05 14:49 | 59.79668 | 30.26448 | 89 ft | 2 kts | 126° |
| 2026-05-05 14:49 | 59.79679 | 30.26428 | 89 ft | 2 kts | 145° |
| 2026-05-05 14:50 | 59.79692 | 30.26415 | 89 ft | 2 kts | 166° |
| 2026-05-05 14:50 | 59.79707 | 30.26413 | 89 ft | 2 kts | 186° |
| 2026-05-05 14:50 | 59.79715 | 30.26416 | 89 ft | 1 kts | 199° |
| 2026-05-05 14:50 | 59.79718 | 30.26418 | 89 ft | 0 kts | 197° |
| 2026-05-05 14:53 | 59.79713 | 30.26415 | 89 ft | 2 kts | 197° |
| 2026-05-05 14:53 | 59.79681 | 30.26395 | 89 ft | 6 kts | 197° |
| 2026-05-05 14:53 | 59.79632 | 30.26368 | 89 ft | 7 kts | 196° |
| 2026-05-05 14:54 | 59.79589 | 30.26342 | 89 ft | 5 kts | 196° |
| 2026-05-05 14:54 | 59.79550 | 30.26319 | 89 ft | 5 kts | 197° |
| 2026-05-05 14:54 | 59.79512 | 30.26326 | 89 ft | 6 kts | 141° |
| 2026-05-05 14:54 | 59.79492 | 30.26401 | 89 ft | 4 kts | 121° |
| 2026-05-05 14:55 | 59.79468 | 30.26424 | 89 ft | 4 kts | 178° |
| 2026-05-05 14:55 | 59.79426 | 30.26408 | 89 ft | 7 kts | 196° |
| 2026-05-05 14:55 | 59.79379 | 30.26381 | 89 ft | 6 kts | 197° |
| 2026-05-05 14:55 | 59.79341 | 30.26344 | 89 ft | 5 kts | 232° |
| 2026-05-05 14:56 | 59.79336 | 30.26258 | 89 ft | 7 kts | 281° |
| 2026-05-05 14:56 | 59.79349 | 30.26158 | 89 ft | 8 kts | 286° |
| 2026-05-05 14:56 | 59.79386 | 30.25918 | 89 ft | 44 kts | 287° |
| 2026-05-05 14:56 | 59.79557 | 30.24761 | 90 ft | 127 kts | 287° |
| 2026-05-05 14:57 | 59.79855 | 30.22754 | 503 ft | 166 kts | 288° |
| 2026-05-05 14:57 | 59.80196 | 30.20650 | 1710 ft | 163 kts | 287° |
| 2026-05-05 14:57 | 59.80554 | 30.18590 | 2718 ft | 164 kts | 287° |
| 2026-05-05 14:57 | 59.80890 | 30.16438 | 3588 ft | 171 kts | 282° |
| 2026-05-05 14:58 | 59.81206 | 30.14187 | 4583 ft | 173 kts | 282° |
| 2026-05-05 14:58 | 59.81543 | 30.11899 | 5431 ft | 181 kts | 281° |
| 2026-05-05 14:58 | 59.81914 | 30.09469 | 6235 ft | 193 kts | 282° |
| 2026-05-05 14:58 | 59.82279 | 30.06900 | 7152 ft | 196 kts | 277° |
| 2026-05-05 14:59 | 59.82577 | 30.04364 | 8263 ft | 191 kts | 277° |
| 2026-05-05 14:59 | 59.82895 | 30.01835 | 9156 ft | 196 kts | 279° |
| 2026-05-05 14:59 | 59.83161 | 29.99178 | 9986 ft | 198 kts | 268° |
| 2026-05-05 14:59 | 59.82866 | 29.96625 | 10898 ft | 199 kts | 241° |
| 2026-05-05 15:00 | 59.81781 | 29.94805 | 11634 ft | 222 kts | 210° |
| 2026-05-05 15:00 | 59.80726 | 29.94291 | 11952 ft | 246 kts | 197° |
| 2026-05-05 15:00 | 59.78407 | 29.93747 | 13109 ft | 253 kts | 198° |
| 2026-05-05 15:00 | 59.76760 | 29.93215 | 14310 ft | 244 kts | 200° |
| 2026-05-05 15:01 | 59.75045 | 29.93104 | 15180 ft | 263 kts | 181° |
| 2026-05-05 15:01 | 59.73233 | 29.94378 | 15906 ft | 293 kts | 158° |
| 2026-05-05 15:01 | 59.71742 | 29.97259 | 16885 ft | 315 kts | 131° |
| 2026-05-05 15:01 | 59.70892 | 30.01372 | 17609 ft | 337 kts | 104° |
| 2026-05-05 15:02 | 59.70622 | 30.05984 | 18341 ft | 343 kts | 103° |
| 2026-05-05 15:02 | 59.70184 | 30.10618 | 18996 ft | 348 kts | 108° |
| 2026-05-05 15:02 | 59.69639 | 30.15372 | 19519 ft | 364 kts | 103° |
| 2026-05-05 15:02 | 59.69464 | 30.20437 | 20066 ft | 380 kts | 94° |
| 2026-05-05 15:03 | 59.69400 | 30.25786 | 20611 ft | 393 kts | 95° |
| 2026-05-05 15:03 | 59.69305 | 30.31213 | 21118 ft | 397 kts | 95° |
| 2026-05-05 15:03 | 59.69013 | 30.36671 | 21202 ft | 408 kts | 106° |
| 2026-05-05 15:03 | 59.68420 | 30.42230 | 21226 ft | 423 kts | 106° |
| 2026-05-05 15:04 | 59.67812 | 30.48024 | 21265 ft | 439 kts | 106° |
| 2026-05-05 15:04 | 59.67178 | 30.54000 | 21283 ft | 451 kts | 105° |
| 2026-05-05 15:04 | 59.66524 | 30.60119 | 21295 ft | 461 kts | 105° |
| 2026-05-05 15:04 | 59.65853 | 30.66348 | 21321 ft | 471 kts | 106° |
| 2026-05-05 15:05 | 59.64697 | 30.79349 | 21501 ft | 485 kts | 103° |
| 2026-05-05 15:05 | 59.64160 | 30.85921 | 21750 ft | 487 kts | 103° |
| 2026-05-05 15:05 | 59.63615 | 30.92531 | 21996 ft | 488 kts | 103° |
| 2026-05-05 15:06 | 59.63062 | 30.99136 | 22216 ft | 488 kts | 103° |
| 2026-05-05 15:06 | 59.62505 | 31.05715 | 22302 ft | 490 kts | 103° |
| 2026-05-05 15:06 | 59.61942 | 31.12345 | 22408 ft | 490 kts | 103° |
| 2026-05-05 15:06 | 59.61379 | 31.18945 | 22521 ft | 490 kts | 103° |
| 2026-05-05 15:07 | 59.60808 | 31.25613 | 22791 ft | 486 kts | 103° |
| 2026-05-05 15:07 | 59.60254 | 31.32052 | 23293 ft | 477 kts | 103° |
| 2026-05-05 15:07 | 59.59696 | 31.38476 | 23812 ft | 468 kts | 103° |
| 2026-05-05 15:07 | 59.59148 | 31.44703 | 24338 ft | 460 kts | 103° |
| 2026-05-05 15:08 | 59.58606 | 31.50851 | 24870 ft | 452 kts | 103° |
| 2026-05-05 15:08 | 59.58067 | 31.56944 | 25407 ft | 443 kts | 103° |
| 2026-05-05 15:08 | 59.57546 | 31.62872 | 25945 ft | 444 kts | 103° |
| 2026-05-05 15:08 | 59.57017 | 31.68872 | 26482 ft | 450 kts | 104° |
| 2026-05-05 15:09 | 59.56472 | 31.74979 | 27021 ft | 454 kts | 104° |
| 2026-05-05 15:09 | 59.55918 | 31.81130 | 27558 ft | 458 kts | 104° |
| 2026-05-05 15:09 | 59.55358 | 31.87307 | 28094 ft | 462 kts | 104° |
| 2026-05-05 15:09 | 59.54793 | 31.93495 | 28626 ft | 465 kts | 104° |
| 2026-05-05 15:10 | 59.54193 | 31.99753 | 29154 ft | 454 kts | 108° |
| 2026-05-05 15:10 | 59.53322 | 32.05471 | 29670 ft | 431 kts | 118° |
| 2026-05-05 15:10 | 59.51982 | 32.10593 | 30215 ft | 405 kts | 129° |
| 2026-05-05 15:10 | 59.50405 | 32.14984 | 30731 ft | 383 kts | 136° |
| 2026-05-05 15:11 | 59.48777 | 32.18877 | 31212 ft | 363 kts | 139° |
| 2026-05-05 15:11 | 59.47154 | 32.22455 | 31688 ft | 343 kts | 141° |
| 2026-05-05 15:11 | 59.45526 | 32.25850 | 31547 ft | 347 kts | 142° |
| 2026-05-05 15:11 | 59.43817 | 32.29283 | 31180 ft | 357 kts | 142° |
| 2026-05-05 15:12 | 59.42069 | 32.32750 | 30962 ft | 361 kts | 142° |
| 2026-05-05 15:12 | 59.38552 | 32.39649 | 30969 ft | 358 kts | 143° |
| 2026-05-05 15:13 | 59.35043 | 32.46468 | 30970 ft | 355 kts | 143° |
| 2026-05-05 15:13 | 59.31525 | 32.53258 | 30968 ft | 355 kts | 143° |
| 2026-05-05 15:14 | 59.28023 | 32.60002 | 30958 ft | 356 kts | 143° |
| 2026-05-05 15:14 | 59.24500 | 32.66769 | 30957 ft | 357 kts | 143° |
| 2026-05-05 15:15 | 59.20953 | 32.73572 | 30957 ft | 357 kts | 143° |
| 2026-05-05 15:15 | 59.17441 | 32.80391 | 30956 ft | 358 kts | 143° |
| 2026-05-05 15:16 | 59.13922 | 32.87118 | 30960 ft | 358 kts | 143° |
| 2026-05-05 15:16 | 59.10344 | 32.93915 | 30965 ft | 358 kts | 143° |
| 2026-05-05 15:17 | 59.06797 | 33.00624 | 30965 ft | 359 kts | 143° |
| 2026-05-05 15:17 | 59.03216 | 33.07378 | 30965 ft | 360 kts | 143° |
| 2026-05-05 15:18 | 58.99601 | 33.14173 | 30963 ft | 362 kts | 143° |
| 2026-05-05 15:18 | 58.95987 | 33.20946 | 30972 ft | 363 kts | 143° |
| 2026-05-05 15:19 | 58.92357 | 33.27729 | 30975 ft | 364 kts | 143° |
| 2026-05-05 15:19 | 58.88720 | 33.34503 | 30984 ft | 365 kts | 143° |
| 2026-05-05 15:20 | 58.85042 | 33.41331 | 30988 ft | 367 kts | 143° |
| 2026-05-05 15:20 | 58.81375 | 33.48117 | 30993 ft | 369 kts | 143° |
| 2026-05-05 15:21 | 58.77654 | 33.54985 | 30993 ft | 371 kts | 143° |
| 2026-05-05 15:21 | 58.73926 | 33.61842 | 30993 ft | 373 kts | 143° |
| 2026-05-05 15:22 | 58.70146 | 33.68780 | 30991 ft | 375 kts | 144° |
| 2026-05-05 15:22 | 58.66379 | 33.75661 | 30994 ft | 376 kts | 144° |
| 2026-05-05 15:23 | 58.62587 | 33.82570 | 30998 ft | 377 kts | 144° |
| 2026-05-05 15:23 | 58.58790 | 33.89467 | 31005 ft | 378 kts | 144° |
| 2026-05-05 15:24 | 58.54966 | 33.96391 | 30995 ft | 380 kts | 144° |
| 2026-05-05 15:24 | 58.51110 | 34.03351 | 30994 ft | 382 kts | 144° |
| 2026-05-05 15:25 | 58.47252 | 34.10294 | 31007 ft | 383 kts | 144° |
| 2026-05-05 15:25 | 58.43369 | 34.17256 | 30965 ft | 386 kts | 144° |
| 2026-05-05 15:25 | 58.41410 | 34.20753 | 30713 ft | 395 kts | 144° |
| 2026-05-05 15:26 | 58.39391 | 34.24357 | 30461 ft | 403 kts | 143° |
| 2026-05-05 15:26 | 58.37320 | 34.28045 | 30206 ft | 410 kts | 143° |
| 2026-05-05 15:26 | 58.35226 | 34.31770 | 29949 ft | 418 kts | 143° |
| 2026-05-05 15:26 | 58.33074 | 34.35592 | 29691 ft | 426 kts | 143° |
| 2026-05-05 15:27 | 58.30897 | 34.39452 | 29432 ft | 433 kts | 143° |
| 2026-05-05 15:27 | 58.28697 | 34.43345 | 29177 ft | 440 kts | 143° |
| 2026-05-05 15:27 | 58.26445 | 34.47326 | 29005 ft | 445 kts | 143° |
| 2026-05-05 15:28 | 58.21934 | 34.55310 | 29004 ft | 442 kts | 142° |
| 2026-05-05 15:28 | 58.17395 | 34.62888 | 29008 ft | 432 kts | 146° |
| 2026-05-05 15:29 | 58.12789 | 34.70210 | 29004 ft | 428 kts | 147° |
| 2026-05-05 15:29 | 58.08250 | 34.77410 | 29005 ft | 424 kts | 147° |
| 2026-05-05 15:30 | 58.03769 | 34.84503 | 29009 ft | 420 kts | 147° |
| 2026-05-05 15:30 | 57.99321 | 34.91499 | 29018 ft | 416 kts | 147° |
| 2026-05-05 15:31 | 57.94909 | 34.98406 | 29029 ft | 412 kts | 147° |
| 2026-05-05 15:31 | 57.90496 | 35.05282 | 29035 ft | 411 kts | 147° |
| 2026-05-05 15:32 | 57.86092 | 35.12121 | 29037 ft | 413 kts | 147° |
| 2026-05-05 15:32 | 57.81667 | 35.18973 | 29036 ft | 414 kts | 147° |
| 2026-05-05 15:33 | 57.77211 | 35.25853 | 29041 ft | 416 kts | 147° |
| 2026-05-05 15:33 | 57.72727 | 35.32753 | 29038 ft | 418 kts | 147° |
| 2026-05-05 15:34 | 57.68212 | 35.39680 | 29043 ft | 419 kts | 147° |
| 2026-05-05 15:34 | 57.63780 | 35.46761 | 29044 ft | 421 kts | 146° |
| 2026-05-05 15:35 | 57.59031 | 35.52816 | 29079 ft | 405 kts | 166° |
| 2026-05-05 15:35 | 57.53754 | 35.56192 | 29047 ft | 403 kts | 169° |
| 2026-05-05 15:36 | 57.48431 | 35.59395 | 29052 ft | 403 kts | 170° |
| 2026-05-05 15:36 | 57.43051 | 35.62551 | 29059 ft | 404 kts | 170° |
| 2026-05-05 15:37 | 57.37691 | 35.65665 | 29059 ft | 405 kts | 171° |
| 2026-05-05 15:37 | 57.32293 | 35.68785 | 29055 ft | 406 kts | 171° |
| 2026-05-05 15:38 | 57.27169 | 35.73428 | 29064 ft | 422 kts | 152° |
| 2026-05-05 15:38 | 57.22370 | 35.79645 | 29058 ft | 422 kts | 152° |
| 2026-05-05 15:39 | 57.17559 | 35.85799 | 29062 ft | 421 kts | 154° |
| 2026-05-05 15:39 | 57.12664 | 35.91723 | 29060 ft | 422 kts | 153° |
| 2026-05-05 15:40 | 57.07822 | 35.97781 | 29072 ft | 422 kts | 154° |
| 2026-05-05 15:40 | 57.02920 | 36.03766 | 29071 ft | 424 kts | 153° |
| 2026-05-05 15:41 | 56.98071 | 36.09849 | 29076 ft | 424 kts | 153° |
| 2026-05-05 15:41 | 56.93215 | 36.15973 | 29069 ft | 425 kts | 153° |
| 2026-05-05 15:42 | 56.88320 | 36.22144 | 29065 ft | 426 kts | 152° |
| 2026-05-05 15:42 | 56.83460 | 36.28256 | 29063 ft | 426 kts | 152° |
| 2026-05-05 15:43 | 56.78771 | 36.35086 | 29069 ft | 432 kts | 146° |
| 2026-05-05 15:43 | 56.74195 | 36.42035 | 29071 ft | 432 kts | 147° |
| 2026-05-05 15:44 | 56.69549 | 36.48997 | 29064 ft | 432 kts | 146° |
| 2026-05-05 15:44 | 56.64897 | 36.55907 | 29072 ft | 432 kts | 147° |
| 2026-05-05 15:45 | 56.60245 | 36.62783 | 29074 ft | 433 kts | 147° |
| 2026-05-05 15:45 | 56.55646 | 36.69948 | 29064 ft | 436 kts | 143° |
| 2026-05-05 15:46 | 56.51131 | 36.77227 | 29066 ft | 435 kts | 145° |
| 2026-05-05 15:46 | 56.46609 | 36.84456 | 29063 ft | 435 kts | 144° |
| 2026-05-05 15:47 | 56.42092 | 36.91737 | 28670 ft | 446 kts | 144° |
| 2026-05-05 15:47 | 56.40531 | 36.94251 | 28124 ft | 458 kts | 143° |
| 2026-05-05 15:47 | 56.37309 | 36.99381 | 27058 ft | 473 kts | 146° |
| 2026-05-05 15:47 | 56.34576 | 37.02565 | 26895 ft | 460 kts | 159° |
| 2026-05-05 15:48 | 56.31653 | 37.04717 | 26912 ft | 445 kts | 169° |
| 2026-05-05 15:48 | 56.28672 | 37.06058 | 26916 ft | 435 kts | 174° |
| 2026-05-05 15:48 | 56.25741 | 37.06766 | 26847 ft | 423 kts | 184° |
| 2026-05-05 15:48 | 56.22846 | 37.06571 | 26584 ft | 417 kts | 192° |
| 2026-05-05 15:49 | 56.19992 | 37.05819 | 26235 ft | 414 kts | 196° |
| 2026-05-05 15:49 | 56.17147 | 37.04769 | 25374 ft | 423 kts | 199° |
| 2026-05-05 15:49 | 56.14293 | 37.03532 | 24964 ft | 420 kts | 199° |
| 2026-05-05 15:49 | 56.11437 | 37.02217 | 24445 ft | 419 kts | 200° |
| 2026-05-05 15:50 | 56.08660 | 37.00878 | 24124 ft | 414 kts | 201° |
| 2026-05-05 15:50 | 56.05890 | 36.99502 | 23576 ft | 414 kts | 200° |
| 2026-05-05 15:50 | 56.03128 | 36.98111 | 23143 ft | 411 kts | 200° |
| 2026-05-05 15:50 | 56.00390 | 36.96720 | 22746 ft | 408 kts | 201° |
| 2026-05-05 15:51 | 55.97691 | 36.95342 | 22313 ft | 406 kts | 201° |
| 2026-05-05 15:51 | 55.94935 | 36.94082 | 21853 ft | 406 kts | 195° |
| 2026-05-05 15:51 | 55.92119 | 36.93588 | 21411 ft | 409 kts | 185° |
| 2026-05-05 15:51 | 55.89291 | 36.93845 | 21002 ft | 409 kts | 180° |
| 2026-05-05 15:52 | 55.86486 | 36.94226 | 20573 ft | 406 kts | 180° |
| 2026-05-05 15:52 | 55.83621 | 36.94609 | 20152 ft | 403 kts | 180° |
| 2026-05-05 15:52 | 55.80849 | 36.94985 | 19747 ft | 401 kts | 180° |
| 2026-05-05 15:52 | 55.78080 | 36.95360 | 19353 ft | 398 kts | 180° |
| 2026-05-05 15:53 | 55.75321 | 36.95736 | 18980 ft | 395 kts | 180° |
| 2026-05-05 15:53 | 55.72586 | 36.96200 | 18531 ft | 395 kts | 176° |
| 2026-05-05 15:53 | 55.69890 | 36.96981 | 18124 ft | 393 kts | 175° |
| 2026-05-05 15:53 | 55.67191 | 36.97741 | 17710 ft | 390 kts | 175° |
| 2026-05-05 15:54 | 55.64531 | 36.98489 | 17287 ft | 388 kts | 175° |
| 2026-05-05 15:54 | 55.61874 | 36.99250 | 16758 ft | 382 kts | 175° |
| 2026-05-05 15:54 | 55.59291 | 36.99878 | 15912 ft | 378 kts | 181° |
| 2026-05-05 15:54 | 55.56702 | 36.99923 | 15191 ft | 371 kts | 184° |
| 2026-05-05 15:55 | 55.54129 | 36.99936 | 14450 ft | 368 kts | 184° |
| 2026-05-05 15:55 | 55.52173 | 36.99941 | 13874 ft | 365 kts | 184° |
| 2026-05-05 15:55 | 55.50196 | 36.99943 | 13329 ft | 361 kts | 184° |
| 2026-05-05 15:55 | 55.47693 | 36.99946 | 12560 ft | 359 kts | 184° |
| 2026-05-05 15:56 | 55.45213 | 37.00093 | 11835 ft | 357 kts | 176° |
| 2026-05-05 15:56 | 55.42815 | 37.01276 | 11077 ft | 361 kts | 159° |
| 2026-05-05 15:56 | 55.40692 | 37.03597 | 10353 ft | 364 kts | 143° |
| 2026-05-05 15:56 | 55.39009 | 37.06856 | 9575 ft | 361 kts | 126° |
| 2026-05-05 15:57 | 55.37858 | 37.10699 | 8266 ft | 355 kts | 112° |
| 2026-05-05 15:57 | 55.37003 | 37.14598 | 7477 ft | 332 kts | 114° |
| 2026-05-05 15:57 | 55.36156 | 37.18231 | 6781 ft | 313 kts | 114° |
| 2026-05-05 15:57 | 55.35352 | 37.21643 | 6223 ft | 294 kts | 115° |
| 2026-05-05 15:58 | 55.34580 | 37.24887 | 5737 ft | 276 kts | 115° |
| 2026-05-05 15:58 | 55.33857 | 37.27903 | 5345 ft | 261 kts | 115° |
| 2026-05-05 15:58 | 55.33157 | 37.30805 | 5026 ft | 256 kts | 114° |
| 2026-05-05 15:58 | 55.32746 | 37.33832 | 4650 ft | 260 kts | 88° |
| 2026-05-05 15:59 | 55.33197 | 37.36875 | 4539 ft | 258 kts | 57° |
| 2026-05-05 15:59 | 55.34376 | 37.39151 | 4564 ft | 254 kts | 29° |
| 2026-05-05 15:59 | 55.35995 | 37.40261 | 4587 ft | 246 kts | 8° |
| 2026-05-05 15:59 | 55.37687 | 37.40900 | 4582 ft | 249 kts | 9° |
| 2026-05-05 16:00 | 55.39390 | 37.41598 | 4562 ft | 245 kts | 9° |
| 2026-05-05 16:00 | 55.41048 | 37.42289 | 4476 ft | 244 kts | 9° |
| 2026-05-05 16:00 | 55.42709 | 37.42992 | 4331 ft | 245 kts | 9° |
| 2026-05-05 16:00 | 55.44356 | 37.43703 | 4278 ft | 243 kts | 9° |
| 2026-05-05 16:01 | 55.46002 | 37.44416 | 4183 ft | 243 kts | 9° |
| 2026-05-05 16:01 | 55.47641 | 37.45128 | 4138 ft | 241 kts | 9° |
| 2026-05-05 16:01 | 55.49260 | 37.45832 | 4131 ft | 235 kts | 9° |
| 2026-05-05 16:01 | 55.50844 | 37.46525 | 3941 ft | 236 kts | 10° |
| 2026-05-05 16:02 | 55.52412 | 37.47261 | 3695 ft | 232 kts | 10° |
| 2026-05-05 16:02 | 55.53963 | 37.48000 | 3448 ft | 227 kts | 10° |
| 2026-05-05 16:02 | 55.55468 | 37.48723 | 3209 ft | 222 kts | 11° |
| 2026-05-05 16:02 | 55.56925 | 37.49425 | 2966 ft | 218 kts | 11° |
| 2026-05-05 16:03 | 55.58372 | 37.50097 | 2754 ft | 210 kts | 5° |
| 2026-05-05 16:03 | 55.59746 | 37.49885 | 2568 ft | 194 kts | 337° |
| 2026-05-05 16:03 | 55.60970 | 37.49093 | 2383 ft | 182 kts | 336° |
| 2026-05-05 16:03 | 55.62128 | 37.48347 | 2186 ft | 163 kts | 334° |
| 2026-05-05 16:04 | 55.62882 | 37.47252 | 2169 ft | 132 kts | 297° |
| 2026-05-05 16:04 | 55.63322 | 37.45851 | 2193 ft | 127 kts | 291° |
| 2026-05-05 16:04 | 55.63508 | 37.44381 | 2199 ft | 124 kts | 265° |
| 2026-05-05 16:04 | 55.63328 | 37.42875 | 2218 ft | 127 kts | 252° |
| 2026-05-05 16:05 | 55.62922 | 37.41397 | 2180 ft | 140 kts | 238° |
| 2026-05-05 16:05 | 55.62413 | 37.39874 | 2006 ft | 147 kts | 241° |
| 2026-05-05 16:05 | 55.61955 | 37.38269 | 1810 ft | 144 kts | 244° |
| 2026-05-05 16:05 | 55.61533 | 37.36701 | 1584 ft | 139 kts | 246° |
| 2026-05-05 16:06 | 55.61158 | 37.35158 | 1380 ft | 135 kts | 248° |
| 2026-05-05 16:06 | 55.60836 | 37.33570 | 1232 ft | 137 kts | 249° |
| 2026-05-05 16:06 | 55.60503 | 37.31996 | 1083 ft | 139 kts | 244° |
| 2026-05-05 16:06 | 55.60121 | 37.30379 | 895 ft | 142 kts | 244° |
| 2026-05-05 16:07 | 55.59748 | 37.28758 | 725 ft | 144 kts | 244° |
| 2026-05-05 16:07 | 55.59395 | 37.27195 | 693 ft | 117 kts | 247° |
| 2026-05-05 16:07 | 55.59150 | 37.26148 | 693 ft | 70 kts | 249° |
| 2026-05-05 16:07 | 55.59025 | 37.25551 | 693 ft | 37 kts | 259° |
| 2026-05-05 16:08 | 55.59029 | 37.25160 | 693 ft | 21 kts | 279° |
| 2026-05-05 16:08 | 55.59069 | 37.25036 | 693 ft | 8 kts | 331° |
| 2026-05-05 16:08 | 55.59114 | 37.25024 | 692 ft | 4 kts | 18° |
| 2026-05-05 16:08 | 55.59138 | 37.25056 | 692 ft | 4 kts | 46° |
| 2026-05-05 16:09 | 55.59150 | 37.25086 | 692 ft | 1 kts | 61° |
| 2026-05-05 16:09 | 55.59157 | 37.25116 | 692 ft | 4 kts | 69° |
| 2026-05-05 16:09 | 55.59172 | 37.25186 | 692 ft | 7 kts | 69° |
| 2026-05-05 16:09 | 55.59196 | 37.25296 | 692 ft | 11 kts | 69° |
| 2026-05-05 16:10 | 55.59226 | 37.25429 | 692 ft | 12 kts | 68° |
| 2026-05-05 16:10 | 55.59258 | 37.25572 | 692 ft | 12 kts | 68° |
| 2026-05-05 16:10 | 55.59293 | 37.25726 | 692 ft | 13 kts | 68° |
| 2026-05-05 16:10 | 55.59329 | 37.25888 | 692 ft | 14 kts | 68° |
| 2026-05-05 16:11 | 55.59362 | 37.26035 | 692 ft | 10 kts | 68° |
| 2026-05-05 16:11 | 55.59440 | 37.26384 | 692 ft | 14 kts | 68° |
| 2026-05-05 16:12 | 55.59481 | 37.26566 | 692 ft | 16 kts | 69° |
| 2026-05-05 16:12 | 55.59552 | 37.26835 | 692 ft | 8 kts | 59° |
| 2026-05-05 16:13 | 55.59663 | 37.27053 | 692 ft | 15 kts | 45° |
| 2026-05-05 16:13 | 55.59756 | 37.27223 | 692 ft | 21 kts | 47° |
| 2026-05-05 16:13 | 55.59853 | 37.27406 | 692 ft | 17 kts | 46° |
| 2026-05-05 16:14 | 55.59950 | 37.27581 | 692 ft | 4 kts | 32° |
| 2026-05-05 16:14 | 55.60002 | 37.27589 | 692 ft | 3 kts | 356° |
| 2026-05-05 16:15 | 55.60032 | 37.27586 | 692 ft | 0 kts | 359° |
| 2026-05-05 16:15 | 55.60035 | 37.27586 | 692 ft | 0 kts | 359° |